createdAt,value
2022-09-28T00:03:14.681Z,98437.84
2022-09-28T00:08:18.742Z,98437.44
2022-09-28T00:13:21.360Z,98446.88
2022-09-28T00:18:24.078Z,98443.25
2022-09-28T00:23:28.083Z,98431.78
2022-09-28T00:28:31.296Z,98437.91
2022-09-28T00:33:33.896Z,98426.16
2022-09-28T00:38:40.529Z,98420.13
2022-09-28T00:43:43.180Z,98415.50
2022-09-28T00:48:52.008Z,98421.75
2022-09-28T00:53:56.867Z,98419.25
2022-09-28T00:59:00.793Z,98414.63
2022-09-28T01:04:07.227Z,98415.00
2022-09-28T01:09:11.766Z,98408.78
2022-09-28T01:14:16.406Z,98411.78
2022-09-28T01:19:34.755Z,98414.59
2022-09-28T01:24:43.463Z,98402.69
2022-09-28T01:29:53.494Z,98402.06
2022-09-28T01:35:04.478Z,98386.66
2022-09-28T01:40:08.479Z,98377.19
2022-09-28T01:45:16.014Z,98370.13
2022-09-28T01:50:22.290Z,98365.72
2022-09-28T01:55:29.626Z,98354.84
2022-09-28T02:00:36.030Z,98351.63
2022-09-28T02:05:40.789Z,98346.13
2022-09-28T02:10:45.610Z,98339.47
2022-09-28T02:15:53.051Z,98335.97
2022-09-28T02:21:00.831Z,98333.56
2022-09-28T02:26:08.236Z,98320.22
2022-09-28T02:31:13.508Z,98319.16
2022-09-28T02:36:16.480Z,98311.88
2022-09-28T02:41:28.035Z,98306.03
2022-09-28T02:46:35.648Z,98317.50
2022-09-28T02:51:55.640Z,98310.63
2022-09-28T02:57:10.904Z,98311.31
2022-09-28T03:02:21.419Z,98320.53
2022-09-28T03:07:26.118Z,98304.66
2022-09-28T03:12:29.950Z,98298.84
2022-09-28T03:17:34.070Z,98292.81
2022-09-28T03:22:37.834Z,98309.53
2022-09-28T03:27:41.197Z,98305.03
2022-09-28T03:32:46.048Z,98299.59
2022-09-28T03:37:55.605Z,98289.34
2022-09-28T03:43:01.054Z,98286.97
2022-09-28T03:48:05.237Z,98282.78
2022-09-28T03:53:09.776Z,98273.94
2022-09-28T03:58:12.382Z,98262.63
2022-09-28T04:03:17.155Z,98258.84
2022-09-28T04:08:20.287Z,98247.91
2022-09-28T04:13:23.084Z,98240.88
2022-09-28T04:18:27.401Z,98229.41
2022-09-28T04:23:53.141Z,98218.31
2022-09-28T04:29:14.505Z,98214.09
2022-09-28T04:34:21.939Z,98210.44
2022-09-28T04:39:25.345Z,98192.28
2022-09-28T04:44:30.243Z,98203.78
2022-09-28T04:49:38.718Z,98202.56
2022-09-28T04:54:46.599Z,98188.66
2022-09-28T04:59:49.228Z,98179.25
2022-09-28T05:04:55.428Z,98184.09
2022-09-28T05:10:19.841Z,98178.34
2022-09-28T05:15:22.750Z,98168.50
2022-09-28T05:20:26.926Z,98165.28
2022-09-28T05:25:29.734Z,98162.28
2022-09-28T05:30:42.137Z,98156.06
2022-09-28T05:36:09.800Z,98148.59
2022-09-28T05:41:12.632Z,98143.38
2022-09-28T05:46:15.606Z,98147.78
2022-09-28T05:51:20.071Z,98148.22
2022-09-28T05:56:23.491Z,98143.78
2022-09-28T06:01:28.491Z,98135.13
2022-09-28T06:06:35.609Z,98132.91
2022-09-28T06:11:38.524Z,98130.09
2022-09-28T06:16:47.551Z,98130.31
2022-09-28T06:21:51.920Z,98131.34
2022-09-28T06:26:54.681Z,98136.97
2022-09-28T06:31:57.935Z,98133.75
2022-09-28T06:37:04.641Z,98127.72
2022-09-28T06:42:07.792Z,98132.19
2022-09-28T06:47:28.901Z,98134.44
2022-09-28T06:52:55.214Z,98123.38
2022-09-28T06:58:17.036Z,98135.72
2022-09-28T07:03:21.704Z,98139.34
2022-09-28T07:08:56.466Z,98134.13
2022-09-28T07:14:45.686Z,98137.53
2022-09-28T07:19:52.578Z,98131.13
2022-09-28T07:24:57.643Z,98135.53
2022-09-28T07:30:18.688Z,98137.56
2022-09-28T07:35:52.166Z,98145.03
2022-09-28T07:41:14.071Z,98149.09
2022-09-28T07:46:22.905Z,98145.91
2022-09-28T07:51:32.589Z,98149.16
2022-09-28T07:56:55.130Z,98145.31
2022-09-28T08:02:06.012Z,98155.38
2022-09-28T08:07:10.361Z,98148.28
2022-09-28T08:12:14.816Z,98151.13
2022-09-28T08:17:21.747Z,98155.75
2022-09-28T08:22:32.119Z,98153.34
2022-09-28T08:27:37.129Z,98154.75
2022-09-28T08:32:42.509Z,98157.16
2022-09-28T08:38:14.790Z,98155.97
2022-09-28T08:43:59.758Z,98163.22
2022-09-28T08:49:30.034Z,98166.44
2022-09-28T08:54:59.938Z,98167.63
2022-09-28T09:00:18.602Z,98165.59
2022-09-28T09:05:22.318Z,98171.25
2022-09-28T09:10:48.714Z,98169.06
2022-09-28T09:15:58.641Z,98168.47
2022-09-28T09:21:30.941Z,98182.38
2022-09-28T09:26:39.241Z,98183.59
2022-09-28T09:31:52.931Z,98184.44
2022-09-28T09:37:06.406Z,98181.03
2022-09-28T09:42:32.023Z,98177.81
2022-09-28T09:48:00.042Z,98180.44
2022-09-28T09:53:05.693Z,98178.41
2022-09-28T09:58:14.942Z,98175.38
2022-09-28T10:03:26.541Z,98177.41
2022-09-28T10:08:35.711Z,98171.56
2022-09-28T10:13:39.017Z,98170.34
2022-09-28T10:18:55.329Z,98169.94
2022-09-28T10:24:19.341Z,98173.16
2022-09-28T10:29:23.405Z,98171.09
2022-09-28T10:34:28.865Z,98178.00
2022-09-28T10:39:36.445Z,98195.56
2022-09-28T10:44:51.581Z,98194.81
2022-09-28T10:50:04.286Z,98198.22
2022-09-28T10:55:29.384Z,98200.25
2022-09-28T11:00:35.156Z,98215.19
2022-09-28T11:06:02.831Z,98209.94
2022-09-28T11:11:08.649Z,98214.38
2022-09-28T11:16:24.431Z,98202.63
2022-09-28T11:21:32.232Z,98208.09
2022-09-28T11:26:41.794Z,98203.66
2022-09-28T11:31:48.880Z,98205.81
2022-09-28T11:37:10.493Z,98206.28
2022-09-28T11:42:23.488Z,98210.16
2022-09-28T11:47:48.267Z,98220.41
2022-09-28T11:52:58.753Z,98224.56
2022-09-28T11:58:05.295Z,98231.03
2022-09-28T12:03:10.782Z,98240.31
2022-09-28T12:08:20.737Z,98237.28
2022-09-28T12:13:39.064Z,98243.06
2022-09-28T12:18:45.865Z,98240.66
2022-09-28T12:23:50.540Z,98246.72
2022-09-28T12:28:57.481Z,98236.53
2022-09-28T12:34:00.499Z,98249.09
2022-09-28T12:39:35.754Z,98240.59
2022-09-28T12:44:59.485Z,98256.19
2022-09-28T12:55:50.982Z,98261.22
2022-09-28T13:01:01.347Z,98279.19
2022-09-28T13:06:17.373Z,98280.97
2022-09-28T13:11:31.827Z,98287.03
2022-09-28T13:16:38.647Z,98295.31
2022-09-28T13:21:44.639Z,98284.06
2022-09-28T13:26:49.024Z,98286.88
2022-09-28T13:31:54.445Z,98286.78
2022-09-28T13:37:19.824Z,98290.56
2022-09-28T13:42:29.158Z,98292.50
2022-09-28T13:47:43.242Z,98297.22
2022-09-28T13:52:49.712Z,98299.53
2022-09-28T13:57:57.184Z,98298.34
2022-09-28T14:03:05.759Z,98292.69
2022-09-28T14:08:24.907Z,98298.88
2022-09-28T14:14:00.672Z,98308.19
2022-09-28T14:19:07.094Z,98304.88
2022-09-28T14:24:19.296Z,98307.91
2022-09-28T14:29:31.234Z,98315.31
2022-09-28T14:34:36.374Z,98315.75
2022-09-28T14:39:57.094Z,98322.88
2022-09-28T14:45:24.648Z,98329.94
2022-09-28T14:50:28.602Z,98341.41
2022-09-28T14:55:34.698Z,98334.09
2022-09-28T15:00:39.321Z,98328.84
2022-09-28T15:05:47.037Z,98335.06
2022-09-28T15:10:51.453Z,98334.50
2022-09-28T15:16:00.929Z,98346.81
2022-09-28T15:21:04.098Z,98356.03
2022-09-28T15:26:08.484Z,98360.81
2022-09-28T15:31:19.284Z,98355.59
2022-09-28T15:36:25.381Z,98365.72
2022-09-28T15:41:29.645Z,98364.91
2022-09-28T15:46:35.063Z,98378.47
2022-09-28T15:51:48.375Z,98381.91
2022-09-28T15:56:53.563Z,98384.56
2022-09-28T16:02:11.484Z,98386.34
2022-09-28T16:07:24.147Z,98383.91
2022-09-28T16:12:31.779Z,98393.84
2022-09-28T16:17:36.399Z,98393.00
2022-09-28T16:22:39.257Z,98410.44
2022-09-28T16:27:44.605Z,98405.75
2022-09-28T16:32:53.090Z,98415.66
2022-09-28T16:38:10.614Z,98417.28
2022-09-28T16:43:19.888Z,98422.28
2022-09-28T16:48:25.461Z,98424.25
2022-09-28T16:53:45.715Z,98436.13
2022-09-28T16:58:50.202Z,98434.44
2022-09-28T17:03:54.515Z,98444.50
2022-09-28T17:08:59.081Z,98447.28
2022-09-28T17:14:03.560Z,98454.13
2022-09-28T17:19:17.766Z,98457.69
2022-09-28T17:24:20.866Z,98453.81
2022-09-28T17:29:23.889Z,98470.38
2022-09-28T17:34:28.136Z,98472.75
2022-09-28T17:39:31.627Z,98473.72
2022-09-28T17:44:34.187Z,98475.91
2022-09-28T17:49:38.808Z,98482.91
2022-09-28T17:54:41.454Z,98486.91
2022-09-28T17:59:44.080Z,98489.09
2022-09-28T18:04:52.150Z,98499.59
2022-09-28T18:09:56.754Z,98499.03
2022-09-28T18:14:59.306Z,98503.47
2022-09-28T18:20:03.774Z,98496.34
2022-09-28T18:25:07.580Z,98506.41
2022-09-28T18:30:10.855Z,98503.41
2022-09-28T18:35:15.897Z,98510.09
2022-09-28T18:40:21.718Z,98514.13
2022-09-28T18:45:24.422Z,98521.25
2022-09-28T18:50:28.478Z,98524.06
2022-09-28T18:55:31.178Z,98524.19
2022-09-28T19:00:34.887Z,98536.06
2022-09-28T19:05:42.428Z,98547.31
2022-09-28T19:10:48.565Z,98539.38
2022-09-28T19:15:51.225Z,98541.19
2022-09-28T19:20:55.325Z,98535.09
2022-09-28T19:25:57.948Z,98543.31
2022-09-28T19:36:12.965Z,98541.44
2022-09-28T19:41:40.923Z,98554.91
2022-09-28T19:46:45.933Z,98551.06
2022-09-28T19:57:15.722Z,98564.63
2022-09-28T20:02:18.796Z,98570.84
2022-09-28T20:07:22.983Z,98566.81
2022-09-28T20:12:25.650Z,98569.41
2022-09-28T20:17:28.326Z,98571.69
2022-09-28T20:22:32.390Z,98574.59
2022-09-28T20:27:35.247Z,98585.00
2022-09-28T20:32:38.061Z,98585.63
2022-09-28T20:37:43.224Z,98588.59
2022-09-28T20:42:46.161Z,98588.25
2022-09-28T20:47:49.065Z,98594.66
2022-09-28T20:52:53.028Z,98594.66
2022-09-28T20:57:55.835Z,98605.84
2022-09-28T21:02:58.517Z,98609.72
2022-09-28T21:08:03.083Z,98603.22
2022-09-28T21:13:06.004Z,98614.44
2022-09-28T21:18:08.857Z,98612.34
2022-09-28T21:23:12.834Z,98626.75
2022-09-28T21:28:16.263Z,98625.81
2022-09-28T21:33:18.912Z,98635.56
2022-09-28T21:38:23.030Z,98632.50
2022-09-28T21:43:26.163Z,98638.31
2022-09-28T21:48:29.655Z,98639.00
2022-09-28T21:53:34.876Z,98649.03
2022-09-28T21:58:37.850Z,98659.56
2022-09-28T22:03:40.459Z,98659.13
2022-09-28T22:08:45.151Z,98663.72
2022-09-28T22:13:49.171Z,98659.66
2022-09-28T22:18:52.188Z,98662.28
2022-09-28T22:24:00.751Z,98666.03
2022-09-28T22:29:05.625Z,98671.91
2022-09-28T22:34:08.965Z,98658.19
2022-09-28T22:39:14.495Z,98668.50
2022-09-28T22:44:17.122Z,98667.56
2022-09-28T22:49:19.745Z,98669.38
2022-09-28T22:54:23.685Z,98674.78
2022-09-28T22:59:26.307Z,98669.84
2022-09-28T23:04:29.211Z,98666.22
2022-09-28T23:09:33.203Z,98667.31
2022-09-28T23:14:35.785Z,98665.34
2022-09-28T23:19:38.391Z,98668.25
2022-09-28T23:24:42.342Z,98658.03
2022-09-28T23:29:48.707Z,98660.75
2022-09-28T23:34:51.323Z,98658.31
2022-09-28T23:39:55.852Z,98655.59
2022-09-28T23:44:58.555Z,98651.91
2022-09-28T23:50:01.441Z,98654.81
2022-09-28T23:55:06.602Z,98657.88
